createdAt,value
2019-03-31T00:01:48.283Z,45.47
2019-03-31T00:04:20.371Z,45.27
2019-03-31T00:06:52.767Z,48.20
2019-03-31T00:09:25.258Z,41.67
2019-03-31T00:11:57.693Z,44.10
2019-03-31T00:14:30.530Z,46.92
2019-03-31T00:17:02.842Z,42.67
2019-03-31T00:19:34.938Z,48.33
2019-03-31T00:22:07.181Z,59.20
2019-03-31T00:24:39.262Z,53.13
2019-03-31T00:27:11.709Z,57.45
2019-03-31T00:29:43.787Z,56.30
2019-03-31T00:32:15.978Z,51.17
2019-03-31T00:34:48.076Z,55.43
2019-03-31T00:37:20.279Z,54.73
2019-03-31T00:39:53.232Z,68.47
2019-03-31T00:42:25.330Z,56.63
2019-03-31T00:44:57.772Z,53.00
2019-03-31T00:47:30.341Z,55.00
2019-03-31T00:50:02.946Z,61.63
2019-03-31T00:52:35.517Z,61.47
2019-03-31T00:55:07.790Z,61.10
2019-03-31T00:57:40.485Z,60.67
2019-03-31T01:00:14.889Z,70.00
2019-03-31T01:02:47.035Z,64.20
2019-03-31T01:05:19.640Z,63.20
2019-03-31T01:07:52.301Z,61.00
2019-03-31T01:10:25.224Z,61.20
2019-03-31T01:12:58.175Z,65.70
2019-03-31T01:15:30.521Z,68.17
2019-03-31T01:18:04.683Z,63.38
2019-03-31T01:20:37.128Z,66.50
2019-03-31T01:23:09.644Z,69.80
2019-03-31T01:25:42.367Z,75.23
2019-03-31T01:43:06.472Z,70.63
2019-03-31T01:45:38.758Z,66.30
2019-03-31T01:48:11.593Z,76.67
2019-03-31T01:50:44.513Z,76.23
2019-03-31T01:53:16.676Z,80.60
2019-03-31T01:55:49.358Z,76.43
2019-03-31T01:58:22.264Z,77.78
2019-03-31T02:00:58.113Z,77.53
2019-03-31T02:03:30.388Z,84.83
2019-03-31T02:06:03.114Z,82.27
2019-03-31T02:08:35.303Z,79.87
2019-03-31T02:11:07.920Z,90.83
2019-03-31T02:13:41.592Z,87.30
2019-03-31T02:16:15.168Z,99.23
2019-03-31T02:18:48.523Z,98.35
2019-03-31T02:21:21.145Z,107.87
2019-03-31T02:23:53.595Z,84.60
2019-03-31T02:26:26.220Z,96.60
2019-03-31T02:28:59.130Z,99.70
2019-03-31T02:31:32.133Z,95.20
2019-03-31T02:34:04.293Z,102.53
2019-03-31T02:36:36.468Z,98.77
2019-03-31T02:39:09.296Z,104.23
2019-03-31T02:41:41.378Z,99.93
2019-03-31T02:44:14.247Z,99.97
2019-03-31T02:46:47.954Z,96.75
2019-03-31T02:49:20.072Z,104.90
2019-03-31T02:51:52.504Z,100.80
2019-03-31T02:54:25.025Z,93.10
2019-03-31T02:56:58.515Z,102.13
2019-03-31T02:59:35.132Z,103.30
2019-03-31T03:02:08.087Z,105.30
2019-03-31T03:04:41.765Z,104.53
2019-03-31T03:07:17.622Z,106.77
2019-03-31T03:09:53.118Z,101.67
2019-03-31T03:12:29.053Z,106.57
2019-03-31T03:15:04.456Z,98.30
2019-03-31T03:17:36.538Z,99.77
2019-03-31T03:20:09.435Z,87.17
2019-03-31T03:22:42.248Z,99.87
2019-03-31T03:25:14.387Z,108.30
2019-03-31T03:27:46.947Z,100.83
2019-03-31T03:30:19.115Z,104.50
2019-03-31T03:33:13.709Z,107.40
2019-03-31T03:35:25.397Z,112.28
2019-03-31T03:37:57.541Z,105.03
2019-03-31T03:40:29.949Z,117.70
2019-03-31T03:43:07.733Z,111.83
2019-03-31T03:45:40.066Z,113.60
2019-03-31T03:48:16.391Z,118.30
2019-03-31T03:50:48.882Z,111.43
2019-03-31T03:53:22.050Z,119.13
2019-03-31T03:55:54.449Z,117.63
2019-03-31T03:58:27.373Z,120.33
2019-03-31T04:00:59.733Z,106.67
2019-03-31T04:03:31.878Z,115.73
2019-03-31T04:06:04.103Z,119.67
2019-03-31T04:08:37.337Z,120.53
2019-03-31T04:11:21.484Z,128.73
2019-03-31T04:13:53.323Z,122.07
2019-03-31T04:16:26.383Z,119.33
2019-03-31T04:18:58.944Z,99.83
2019-03-31T04:21:31.114Z,102.87
2019-03-31T04:24:03.350Z,105.67
2019-03-31T04:26:35.963Z,100.73
2019-03-31T04:29:08.576Z,104.17
2019-03-31T04:31:41.094Z,101.90
2019-03-31T04:34:14.131Z,103.03
2019-03-31T04:36:46.269Z,98.07
2019-03-31T04:39:19.396Z,92.20
2019-03-31T04:41:52.178Z,98.82
2019-03-31T04:44:30.638Z,99.30
2019-03-31T04:47:03.199Z,91.17
2019-03-31T04:49:37.268Z,97.30
2019-03-31T04:52:09.874Z,99.57
2019-03-31T04:54:42.060Z,89.62
2019-03-31T04:57:14.122Z,84.00
2019-03-31T04:59:46.738Z,88.40
2019-03-31T05:02:19.024Z,93.43
2019-03-31T05:04:51.276Z,86.90
2019-03-31T05:07:23.846Z,86.17
2019-03-31T05:09:55.973Z,83.07
2019-03-31T05:12:28.191Z,88.97
2019-03-31T05:15:00.775Z,79.73
2019-03-31T05:17:35.697Z,82.53
2019-03-31T05:20:08.835Z,80.37
2019-03-31T05:22:40.923Z,89.85
2019-03-31T05:25:13.247Z,83.30
2019-03-31T05:27:45.359Z,85.00
2019-03-31T05:30:17.455Z,75.97
2019-03-31T05:32:49.951Z,75.40
2019-03-31T05:35:22.061Z,76.83
2019-03-31T05:37:54.252Z,75.40
2019-03-31T05:40:26.357Z,92.40
2019-03-31T05:42:59.353Z,87.67
2019-03-31T05:45:31.473Z,76.27
2019-03-31T05:48:07.207Z,80.45
2019-03-31T05:50:39.442Z,76.27
2019-03-31T05:53:11.556Z,79.00
2019-03-31T05:55:43.699Z,73.43
2019-03-31T05:58:16.656Z,74.73
2019-03-31T06:00:50.462Z,84.13
2019-03-31T06:03:23.025Z,80.67
2019-03-31T06:05:55.119Z,74.80
2019-03-31T06:08:27.658Z,77.23
2019-03-31T06:10:59.869Z,71.60
2019-03-31T06:13:32.900Z,75.97
2019-03-31T06:16:05.988Z,72.57
2019-03-31T06:18:38.519Z,74.22
2019-03-31T06:21:11.203Z,79.37
2019-03-31T06:23:43.690Z,63.33
2019-03-31T06:26:16.303Z,74.93
2019-03-31T06:28:48.403Z,64.57
2019-03-31T06:31:20.607Z,61.03
2019-03-31T06:33:52.813Z,58.28
2019-03-31T06:36:25.843Z,65.90
2019-03-31T06:38:57.917Z,56.33
2019-03-31T06:41:30.036Z,57.10
2019-03-31T06:44:03.170Z,52.30
2019-03-31T06:46:35.323Z,47.67
2019-03-31T06:49:07.464Z,48.38
2019-03-31T06:51:39.588Z,45.40
2019-03-31T06:54:11.740Z,54.97
2019-03-31T06:56:47.074Z,44.43
2019-03-31T06:59:19.324Z,46.20
2019-03-31T07:01:51.800Z,47.77
2019-03-31T07:04:24.437Z,54.57
2019-03-31T07:06:56.551Z,45.70
2019-03-31T07:09:29.113Z,50.10
2019-03-31T07:12:01.350Z,49.97
2019-03-31T07:14:33.484Z,49.47
2019-03-31T07:17:05.572Z,48.70
2019-03-31T07:19:38.015Z,46.97
2019-03-31T07:22:11.310Z,48.80
2019-03-31T07:24:43.793Z,42.03
2019-03-31T07:27:16.374Z,44.83
2019-03-31T07:29:49.440Z,42.73
2019-03-31T07:32:21.589Z,34.63
2019-03-31T07:34:54.080Z,41.73
2019-03-31T07:37:27.035Z,35.43
2019-03-31T07:39:59.593Z,36.27
2019-03-31T07:42:32.640Z,35.73
2019-03-31T07:45:04.783Z,33.87
2019-03-31T07:47:37.421Z,36.00
2019-03-31T07:50:11.227Z,35.40
2019-03-31T07:52:45.812Z,34.35
2019-03-31T07:55:25.506Z,27.87
2019-03-31T07:57:58.300Z,30.73
2019-03-31T08:00:30.395Z,24.50
2019-03-31T08:03:03.673Z,22.83
2019-03-31T08:05:37.676Z,19.17
2019-03-31T08:08:10.413Z,27.93
2019-03-31T08:10:43.673Z,19.48
2019-03-31T08:13:15.896Z,15.50
2019-03-31T08:15:48.543Z,19.63
2019-03-31T08:18:21.298Z,18.93
2019-03-31T08:20:53.885Z,16.80
2019-03-31T08:23:26.815Z,16.50
2019-03-31T08:25:59.307Z,17.73
2019-03-31T08:28:31.569Z,16.83
2019-03-31T08:31:03.845Z,19.80
2019-03-31T08:33:37.167Z,14.83
2019-03-31T08:36:09.334Z,12.23
2019-03-31T08:38:42.121Z,15.70
2019-03-31T08:41:14.665Z,16.80
2019-03-31T08:43:47.956Z,14.40
2019-03-31T08:46:26.477Z,8.85
2019-03-31T08:48:59.674Z,9.80
2019-03-31T08:51:32.751Z,12.07
2019-03-31T08:54:05.367Z,9.40
2019-03-31T08:56:38.883Z,12.33
2019-03-31T08:59:11.756Z,12.87
2019-03-31T09:01:45.253Z,13.58
2019-03-31T09:04:17.783Z,10.87
2019-03-31T09:06:51.113Z,10.67
2019-03-31T09:09:23.681Z,9.90
2019-03-31T09:11:56.279Z,15.03
2019-03-31T09:14:28.517Z,12.03
2019-03-31T09:17:00.818Z,16.03
2019-03-31T09:19:33.397Z,14.93
2019-03-31T09:22:06.207Z,17.67
2019-03-31T09:24:39.474Z,15.87
2019-03-31T09:27:12.190Z,14.77
2019-03-31T09:29:44.696Z,15.47
2019-03-31T09:32:18.267Z,12.93
2019-03-31T09:34:51.078Z,15.57
2019-03-31T09:37:23.785Z,16.83
2019-03-31T09:39:55.910Z,11.37
2019-03-31T09:42:28.580Z,12.40
2019-03-31T09:45:00.850Z,12.40
2019-03-31T09:47:32.950Z,12.67
2019-03-31T09:50:06.674Z,12.03
2019-03-31T09:52:39.650Z,12.23
2019-03-31T09:55:13.124Z,16.40
2019-03-31T09:57:46.761Z,12.40
2019-03-31T10:00:25.164Z,9.00
2019-03-31T10:02:57.339Z,9.80
2019-03-31T10:05:29.592Z,10.83
2019-03-31T10:08:03.819Z,9.95
2019-03-31T10:10:37.134Z,8.65
2019-03-31T10:13:09.376Z,6.73
2019-03-31T10:15:41.965Z,4.40
2019-03-31T10:18:14.166Z,7.80
2019-03-31T10:20:48.034Z,4.63
2019-03-31T10:23:21.849Z,6.45
2019-03-31T10:25:54.176Z,5.93
2019-03-31T10:28:26.808Z,4.90
2019-03-31T10:30:59.375Z,5.92
2019-03-31T10:33:33.528Z,7.47
2019-03-31T10:36:06.156Z,5.43
2019-03-31T10:38:38.334Z,9.53
2019-03-31T10:41:10.889Z,6.37
2019-03-31T10:43:43.639Z,9.70
2019-03-31T10:46:16.082Z,6.83
2019-03-31T10:48:48.640Z,6.07
2019-03-31T10:51:21.215Z,3.20
2019-03-31T10:53:53.388Z,3.27
2019-03-31T10:56:26.100Z,7.10
2019-03-31T10:58:58.785Z,4.42
2019-03-31T11:01:31.327Z,6.67
2019-03-31T11:04:04.377Z,5.05
2019-03-31T11:06:36.464Z,7.37
2019-03-31T11:09:09.901Z,4.30
2019-03-31T11:11:44.324Z,5.27
2019-03-31T11:14:17.275Z,6.83
2019-03-31T11:16:49.987Z,5.00
2019-03-31T11:19:23.418Z,12.27
2019-03-31T11:22:00.536Z,8.90
2019-03-31T11:24:33.214Z,8.17
2019-03-31T11:27:05.970Z,10.30
2019-03-31T11:29:38.275Z,9.25
2019-03-31T11:32:12.121Z,7.30
2019-03-31T11:34:46.882Z,6.00
2019-03-31T11:37:18.936Z,4.77
2019-03-31T11:39:51.445Z,6.57
2019-03-31T11:42:24.009Z,6.83
2019-03-31T11:44:56.405Z,6.33
2019-03-31T11:47:28.965Z,8.07
2019-03-31T11:50:01.578Z,6.23
2019-03-31T11:52:35.308Z,4.75
2019-03-31T11:55:09.078Z,6.83
2019-03-31T11:57:41.722Z,7.62
2019-03-31T12:00:16.889Z,10.32
2019-03-31T12:02:48.990Z,8.77
2019-03-31T12:05:21.063Z,6.77
2019-03-31T12:07:53.558Z,8.87
2019-03-31T12:10:26.150Z,9.37
2019-03-31T12:12:59.041Z,6.57
2019-03-31T12:15:31.609Z,6.73
2019-03-31T12:18:03.925Z,8.63
2019-03-31T12:20:36.410Z,5.78
2019-03-31T12:23:08.683Z,6.30
2019-03-31T12:25:41.364Z,8.20
2019-03-31T12:28:13.361Z,6.07
2019-03-31T12:30:46.258Z,7.53
2019-03-31T12:33:18.408Z,7.70
2019-03-31T12:35:50.931Z,9.97
2019-03-31T12:38:23.025Z,7.70
2019-03-31T12:40:55.152Z,6.50
2019-03-31T12:43:27.469Z,6.63
2019-03-31T12:45:59.625Z,5.70
2019-03-31T12:48:31.990Z,7.33
2019-03-31T12:51:04.613Z,8.97
2019-03-31T12:53:37.198Z,9.13
2019-03-31T12:56:10.799Z,12.27
2019-03-31T12:58:43.924Z,9.50
2019-03-31T13:01:17.174Z,8.50
2019-03-31T13:03:50.478Z,10.60
2019-03-31T13:06:22.512Z,8.60
2019-03-31T13:08:54.639Z,7.43
2019-03-31T13:11:26.789Z,7.30
2019-03-31T13:13:58.895Z,7.20
2019-03-31T13:16:31.500Z,9.97
2019-03-31T13:19:03.694Z,7.40
2019-03-31T13:21:35.782Z,7.83
2019-03-31T13:24:07.872Z,9.33
2019-03-31T13:26:44.010Z,10.53
2019-03-31T13:29:16.530Z,7.03
2019-03-31T13:31:48.731Z,7.20
2019-03-31T13:34:20.921Z,5.72
2019-03-31T13:36:53.475Z,9.97
2019-03-31T13:39:25.938Z,5.97
2019-03-31T13:41:58.733Z,10.20
2019-03-31T13:44:30.962Z,9.53
2019-03-31T13:47:05.341Z,6.87
2019-03-31T13:49:38.186Z,6.70
2019-03-31T13:52:10.486Z,8.23
2019-03-31T13:54:43.100Z,7.58
2019-03-31T13:57:16.946Z,6.93
2019-03-31T13:59:49.449Z,8.23
2019-03-31T14:02:21.616Z,8.07
2019-03-31T14:04:54.649Z,6.50
2019-03-31T14:07:27.124Z,6.67
2019-03-31T14:09:59.675Z,6.67
2019-03-31T14:12:32.508Z,9.87
2019-03-31T14:15:18.471Z,8.20
2019-03-31T14:17:40.332Z,6.65
2019-03-31T14:20:12.944Z,8.80
2019-03-31T14:22:47.953Z,4.45
2019-03-31T14:25:20.496Z,9.17
2019-03-31T14:27:53.357Z,8.65
2019-03-31T14:30:27.969Z,5.95
2019-03-31T14:33:00.108Z,4.47
2019-03-31T14:35:32.658Z,9.07
2019-03-31T14:38:07.945Z,6.43
2019-03-31T14:40:41.002Z,6.65
2019-03-31T14:43:13.511Z,8.30
2019-03-31T14:45:45.853Z,7.10
2019-03-31T14:48:18.685Z,5.87
2019-03-31T14:50:50.980Z,8.30
2019-03-31T14:53:23.160Z,5.83
2019-03-31T14:55:55.504Z,6.70
2019-03-31T14:58:28.186Z,5.07
2019-03-31T15:01:00.692Z,4.60
2019-03-31T15:03:33.411Z,6.50
2019-03-31T15:06:05.848Z,4.33
2019-03-31T15:08:38.714Z,4.57
2019-03-31T15:11:11.016Z,5.57
2019-03-31T15:13:44.116Z,5.28
2019-03-31T15:16:17.125Z,4.00
2019-03-31T15:18:49.537Z,3.40
2019-03-31T15:21:21.897Z,5.65
2019-03-31T15:23:54.499Z,4.63
2019-03-31T15:26:27.554Z,6.20
2019-03-31T15:29:00.699Z,2.50
2019-03-31T15:31:33.110Z,4.10
2019-03-31T15:34:05.812Z,6.03
2019-03-31T15:36:39.601Z,5.40
2019-03-31T15:39:14.365Z,9.10
2019-03-31T15:41:46.946Z,8.13
2019-03-31T15:44:19.775Z,3.23
2019-03-31T15:46:51.892Z,3.23
2019-03-31T15:49:24.088Z,3.33
2019-03-31T15:51:56.403Z,6.07
2019-03-31T15:54:28.575Z,4.03
2019-03-31T15:57:00.946Z,5.67
2019-03-31T15:59:33.643Z,2.63
2019-03-31T16:02:06.638Z,5.67
2019-03-31T16:04:38.904Z,5.30
2019-03-31T16:07:11.096Z,2.50
2019-03-31T16:09:42.482Z,2.93
2019-03-31T16:12:14.004Z,3.83
2019-03-31T16:14:45.506Z,4.93
2019-03-31T16:17:17.160Z,3.27
2019-03-31T16:19:49.272Z,3.57
2019-03-31T16:22:21.994Z,4.30
2019-03-31T16:24:55.584Z,4.93
2019-03-31T16:27:26.899Z,4.50
2019-03-31T16:29:58.251Z,7.10
2019-03-31T16:32:29.656Z,6.17
2019-03-31T16:35:01.569Z,4.00
2019-03-31T16:37:33.210Z,3.33
2019-03-31T16:40:04.853Z,2.97
2019-03-31T16:42:36.197Z,6.47
2019-03-31T16:45:09.642Z,4.93
2019-03-31T16:47:41.255Z,6.30
2019-03-31T16:50:12.895Z,5.23
2019-03-31T16:52:44.678Z,3.67
2019-03-31T16:55:16.553Z,6.97
2019-03-31T16:57:48.242Z,5.37
2019-03-31T17:02:59.425Z,4.20
2019-03-31T17:05:31.754Z,2.45
2019-03-31T17:08:03.124Z,5.85
2019-03-31T17:10:35.154Z,4.00
2019-03-31T17:13:07.263Z,6.35
2019-03-31T17:15:38.996Z,4.80
2019-03-31T17:18:11.050Z,6.42
2019-03-31T17:20:45.292Z,6.03
2019-03-31T17:23:17.025Z,5.97
2019-03-31T17:25:50.007Z,3.90
2019-03-31T17:28:22.675Z,5.18
2019-03-31T17:30:54.057Z,6.20
2019-03-31T17:33:25.459Z,5.58
2019-03-31T17:35:56.841Z,5.05
2019-03-31T17:38:28.592Z,6.22
2019-03-31T17:41:00.106Z,10.10
2019-03-31T17:43:31.439Z,6.13
2019-03-31T17:46:02.787Z,6.77
2019-03-31T17:48:34.220Z,5.50
2019-03-31T17:51:06.344Z,7.63
2019-03-31T17:53:37.838Z,8.18
2019-03-31T17:56:09.676Z,10.80
2019-03-31T17:58:41.767Z,10.07
2019-03-31T18:01:13.247Z,10.47
2019-03-31T18:03:44.619Z,8.17
2019-03-31T18:06:16.027Z,7.87
2019-03-31T18:08:47.735Z,8.37
2019-03-31T18:11:19.095Z,3.10
2019-03-31T18:13:50.840Z,7.03
2019-03-31T18:16:22.226Z,5.60
2019-03-31T18:18:58.971Z,5.87
2019-03-31T18:21:30.418Z,4.87
2019-03-31T18:24:03.897Z,6.62
2019-03-31T18:26:36.690Z,8.00
2019-03-31T18:29:08.004Z,6.23
2019-03-31T18:31:39.363Z,3.67
2019-03-31T18:34:11.152Z,4.53
2019-03-31T18:36:45.748Z,3.63
2019-03-31T18:39:17.529Z,8.33
2019-03-31T18:41:49.053Z,6.73
2019-03-31T18:44:23.407Z,7.83
2019-03-31T18:46:54.827Z,9.90
2019-03-31T18:49:26.501Z,10.07
2019-03-31T18:51:58.193Z,13.18
2019-03-31T18:54:47.011Z,8.90
2019-03-31T18:57:35.125Z,8.63
2019-03-31T19:00:49.231Z,10.08
2019-03-31T19:03:45.127Z,7.07
2019-03-31T19:06:41.556Z,6.37
2019-03-31T19:09:20.164Z,6.42
2019-03-31T19:12:09.796Z,2.53
2019-03-31T19:15:08.738Z,8.55
2019-03-31T19:18:02.179Z,13.37
2019-03-31T19:20:42.299Z,9.00
2019-03-31T19:23:24.259Z,6.30
2019-03-31T19:26:08.237Z,6.13
2019-03-31T19:28:50.805Z,5.78
2019-03-31T19:31:35.806Z,5.97
2019-03-31T19:34:18.564Z,6.75
2019-03-31T19:37:04.664Z,7.40
2019-03-31T19:39:57.680Z,14.67
2019-03-31T19:42:51.064Z,11.77
2019-03-31T19:45:42.589Z,9.93
2019-03-31T19:48:25.555Z,7.63
2019-03-31T19:51:09.788Z,7.00
2019-03-31T19:54:00.271Z,4.60
2019-03-31T19:56:51.270Z,5.50
2019-03-31T19:59:42.097Z,10.20
2019-03-31T20:02:30.631Z,5.17
2019-03-31T20:05:14.108Z,5.77
2019-03-31T20:07:54.388Z,5.83
2019-03-31T20:10:44.741Z,6.87
2019-03-31T20:13:34.124Z,4.55
2019-03-31T20:16:28.321Z,5.57
2019-03-31T20:19:25.569Z,9.27
2019-03-31T20:22:14.469Z,4.43
2019-03-31T20:24:54.236Z,11.10
2019-03-31T20:27:45.228Z,5.83
2019-03-31T20:30:51.100Z,5.20
2019-03-31T20:33:38.537Z,5.97
2019-03-31T20:36:31.915Z,7.70
2019-03-31T20:39:28.607Z,5.70
2019-03-31T20:42:24.934Z,7.03
2019-03-31T20:44:56.901Z,5.07
2019-03-31T20:47:28.295Z,4.07
2019-03-31T20:50:00.681Z,4.63
2019-03-31T20:52:32.247Z,6.47
2019-03-31T20:55:15.671Z,4.73
2019-03-31T20:57:36.798Z,4.90
2019-03-31T21:07:14.926Z,7.50
2019-03-31T21:09:46.989Z,3.37
2019-03-31T21:12:18.694Z,8.97
2019-03-31T21:14:50.831Z,4.87
2019-03-31T21:17:22.728Z,2.50
2019-03-31T21:19:54.024Z,2.57
2019-03-31T21:22:25.336Z,7.93
2019-03-31T21:24:56.628Z,3.70
2019-03-31T21:27:28.308Z,4.63
2019-03-31T21:30:00.037Z,5.97
2019-03-31T21:32:31.668Z,4.13
2019-03-31T21:35:02.958Z,6.93
2019-03-31T21:37:34.654Z,8.67
2019-03-31T21:40:06.412Z,3.23
2019-03-31T21:42:37.690Z,7.17
2019-03-31T21:45:09.223Z,5.47
2019-03-31T21:47:40.880Z,8.48
2019-03-31T21:50:12.383Z,2.90
2019-03-31T21:52:44.803Z,9.73
2019-03-31T21:55:16.409Z,9.03
2019-03-31T21:57:48.110Z,9.90
2019-03-31T22:00:22.099Z,6.97
2019-03-31T22:02:53.774Z,5.42
2019-03-31T22:05:25.187Z,3.33
2019-03-31T22:07:56.882Z,4.07
2019-03-31T22:10:28.207Z,6.00
2019-03-31T22:12:59.526Z,5.03
2019-03-31T22:15:31.284Z,5.47
2019-03-31T22:18:02.591Z,5.90
2019-03-31T22:20:33.858Z,6.87
2019-03-31T22:23:06.499Z,6.20
2019-03-31T22:25:38.490Z,7.33
2019-03-31T22:28:10.520Z,4.57
2019-03-31T22:30:42.084Z,8.03
2019-03-31T22:33:13.679Z,4.50
2019-03-31T22:36:04.147Z,7.30
2019-03-31T22:38:35.455Z,8.03
2019-03-31T22:41:07.074Z,5.07
2019-03-31T22:43:38.534Z,6.10
2019-03-31T22:46:10.251Z,5.27
2019-03-31T22:48:42.072Z,5.33
2019-03-31T22:51:13.872Z,7.67
2019-03-31T22:53:45.893Z,4.47
2019-03-31T22:56:17.248Z,6.22
2019-03-31T22:58:48.991Z,6.50
2019-03-31T23:01:20.386Z,3.60
2019-03-31T23:03:52.045Z,6.33
2019-03-31T23:06:23.377Z,3.67
2019-03-31T23:08:55.077Z,4.63
2019-03-31T23:11:27.327Z,5.17
2019-03-31T23:13:58.959Z,2.93
2019-03-31T23:16:30.844Z,6.27
2019-03-31T23:19:02.495Z,4.57
2019-03-31T23:21:34.252Z,6.13
2019-03-31T23:24:06.861Z,5.00
2019-03-31T23:26:38.917Z,6.00
2019-03-31T23:29:10.261Z,4.70
2019-03-31T23:31:44.225Z,8.70
2019-03-31T23:34:16.062Z,5.93
2019-03-31T23:36:47.412Z,5.83
2019-03-31T23:39:18.706Z,2.93
2019-03-31T23:41:50.625Z,6.62
2019-03-31T23:44:22.042Z,12.13
2019-03-31T23:46:53.355Z,13.37
2019-03-31T23:49:24.713Z,11.80
2019-03-31T23:51:56.172Z,12.30
2019-03-31T23:54:27.448Z,5.10
2019-03-31T23:56:59.060Z,8.87
2019-03-31T23:59:30.368Z,7.23
